METAR Data
IDs: Format: Raw Decoded Include TAF

Data at: 1451 UTC 25 Jan 2020

METAR for:KVTI (Vinton/Veterans Mem, IA, US)
Text:KVTI 251435Z AUTO 29013G16KT 7SM OVC011 M01/M02 A2995 RMK AO2 T10071023
Temperature: -0.7°C ( 31°F)
Dewpoint: -2.3°C ( 28°F) [RH = 89%]
Pressure (altimeter):29.95 inches Hg (1014.3 mb)
Winds:from the WNW (290 degrees) at 15 MPH (13 knots; 6.7 m/s) gusting to 18 MPH (16 knots; 8.2 m/s)
Visibility: 7 sm ( 11 km)
Ceiling:1100 feet AGL
Clouds: overcast cloud deck at 1100 feet AGL
QC Flag:automated observation with no human augmentation